sensor_id;sensor_type;location;lat;lon;timestamp;P1;durP1;ratioP1;P2;durP2;ratioP2
15831;SDS011;8016;49.928;9.372;2023-08-21T00:01:00;11.43;;;5.83;;
15831;SDS011;8016;49.928;9.372;2023-08-21T00:03:26;10.83;;;6.57;;
15831;SDS011;8016;49.928;9.372;2023-08-21T00:05:52;7.60;;;5.60;;
15831;SDS011;8016;49.928;9.372;2023-08-21T00:08:18;9.40;;;5.83;;
15831;SDS011;8016;49.928;9.372;2023-08-21T00:10:44;9.50;;;6.50;;
15831;SDS011;8016;49.928;9.372;2023-08-21T00:13:10;10.53;;;6.20;;
15831;SDS011;8016;49.928;9.372;2023-08-21T00:15:37;9.63;;;6.30;;
15831;SDS011;8016;49.928;9.372;2023-08-21T00:18:04;7.47;;;6.30;;
15831;SDS011;8016;49.928;9.372;2023-08-21T00:20:30;8.43;;;6.07;;
15831;SDS011;8016;49.928;9.372;2023-08-21T00:22:56;11.53;;;6.67;;
15831;SDS011;8016;49.928;9.372;2023-08-21T00:25:22;8.27;;;6.63;;
15831;SDS011;8016;49.928;9.372;2023-08-21T00:27:48;11.93;;;5.77;;
15831;SDS011;8016;49.928;9.372;2023-08-21T00:30:14;8.97;;;6.70;;
15831;SDS011;8016;49.928;9.372;2023-08-21T00:32:40;10.50;;;6.27;;
15831;SDS011;8016;49.928;9.372;2023-08-21T00:35:06;11.70;;;6.63;;
15831;SDS011;8016;49.928;9.372;2023-08-21T00:37:33;9.40;;;6.20;;
15831;SDS011;8016;49.928;9.372;2023-08-21T00:39:59;8.37;;;6.30;;
15831;SDS011;8016;49.928;9.372;2023-08-21T00:42:25;11.90;;;6.30;;
15831;SDS011;8016;49.928;9.372;2023-08-21T00:44:50;9.93;;;6.50;;
15831;SDS011;8016;49.928;9.372;2023-08-21T00:47:16;11.73;;;6.27;;
15831;SDS011;8016;49.928;9.372;2023-08-21T00:49:44;10.43;;;5.50;;
15831;SDS011;8016;49.928;9.372;2023-08-21T00:52:10;10.83;;;6.73;;
15831;SDS011;8016;49.928;9.372;2023-08-21T00:54:38;8.97;;;6.37;;
15831;SDS011;8016;49.928;9.372;2023-08-21T00:57:04;16.00;;;6.47;;
15831;SDS011;8016;49.928;9.372;2023-08-21T00:59:30;10.80;;;6.33;;
15831;SDS011;8016;49.928;9.372;2023-08-21T01:01:56;12.63;;;6.97;;
15831;SDS011;8016;49.928;9.372;2023-08-21T01:04:22;10.60;;;6.77;;
15831;SDS011;8016;49.928;9.372;2023-08-21T01:06:48;9.73;;;7.03;;
15831;SDS011;8016;49.928;9.372;2023-08-21T01:09:24;9.67;;;6.10;;
15831;SDS011;8016;49.928;9.372;2023-08-21T01:12:09;9.77;;;6.53;;
15831;SDS011;8016;49.928;9.372;2023-08-21T01:14:50;12.17;;;6.33;;
15831;SDS011;8016;49.928;9.372;2023-08-21T01:17:18;9.97;;;6.57;;
15831;SDS011;8016;49.928;9.372;2023-08-21T01:19:46;7.57;;;6.80;;
15831;SDS011;8016;49.928;9.372;2023-08-21T01:22:12;8.20;;;6.73;;
15831;SDS011;8016;49.928;9.372;2023-08-21T01:24:38;7.67;;;6.23;;
15831;SDS011;8016;49.928;9.372;2023-08-21T01:27:04;9.87;;;6.53;;
15831;SDS011;8016;49.928;9.372;2023-08-21T01:29:30;10.80;;;6.67;;
15831;SDS011;8016;49.928;9.372;2023-08-21T01:32:02;11.73;;;6.33;;
15831;SDS011;8016;49.928;9.372;2023-08-21T01:34:32;9.43;;;6.63;;
15831;SDS011;8016;49.928;9.372;2023-08-21T01:36:59;8.67;;;6.27;;
15831;SDS011;8016;49.928;9.372;2023-08-21T01:39:25;7.10;;;6.17;;
15831;SDS011;8016;49.928;9.372;2023-08-21T01:41:52;8.77;;;6.50;;
15831;SDS011;8016;49.928;9.372;2023-08-21T01:44:18;7.93;;;6.53;;
15831;SDS011;8016;49.928;9.372;2023-08-21T01:46:44;10.53;;;7.50;;
15831;SDS011;8016;49.928;9.372;2023-08-21T01:49:10;7.80;;;6.63;;
15831;SDS011;8016;49.928;9.372;2023-08-21T01:51:36;8.50;;;6.60;;
15831;SDS011;8016;49.928;9.372;2023-08-21T01:54:02;11.20;;;6.70;;
15831;SDS011;8016;49.928;9.372;2023-08-21T01:56:28;10.57;;;7.73;;
15831;SDS011;8016;49.928;9.372;2023-08-21T01:58:54;7.93;;;6.17;;
15831;SDS011;8016;49.928;9.372;2023-08-21T02:01:20;8.23;;;6.80;;
15831;SDS011;8016;49.928;9.372;2023-08-21T02:03:46;9.97;;;6.60;;
15831;SDS011;8016;49.928;9.372;2023-08-21T02:06:11;10.53;;;6.60;;
15831;SDS011;8016;49.928;9.372;2023-08-21T02:08:37;11.87;;;6.93;;
15831;SDS011;8016;49.928;9.372;2023-08-21T02:11:03;8.23;;;6.73;;
15831;SDS011;8016;49.928;9.372;2023-08-21T02:13:29;11.13;;;6.70;;
15831;SDS011;8016;49.928;9.372;2023-08-21T02:15:57;10.40;;;7.50;;
15831;SDS011;8016;49.928;9.372;2023-08-21T02:18:23;13.17;;;7.23;;
15831;SDS011;8016;49.928;9.372;2023-08-21T02:20:49;12.60;;;6.90;;
15831;SDS011;8016;49.928;9.372;2023-08-21T02:23:15;7.53;;;6.50;;
15831;SDS011;8016;49.928;9.372;2023-08-21T02:25:41;9.33;;;6.70;;
15831;SDS011;8016;49.928;9.372;2023-08-21T02:28:07;9.77;;;6.80;;
15831;SDS011;8016;49.928;9.372;2023-08-21T02:30:33;9.97;;;6.77;;
15831;SDS011;8016;49.928;9.372;2023-08-21T02:32:59;9.03;;;7.03;;
15831;SDS011;8016;49.928;9.372;2023-08-21T02:35:25;10.73;;;6.60;;
15831;SDS011;8016;49.928;9.372;2023-08-21T02:37:51;11.83;;;6.57;;
15831;SDS011;8016;49.928;9.372;2023-08-21T02:40:17;7.37;;;6.67;;
15831;SDS011;8016;49.928;9.372;2023-08-21T02:42:43;7.40;;;6.60;;
15831;SDS011;8016;49.928;9.372;2023-08-21T02:45:09;7.43;;;6.20;;
15831;SDS011;8016;49.928;9.372;2023-08-21T02:47:36;10.70;;;6.37;;
15831;SDS011;8016;49.928;9.372;2023-08-21T02:50:03;11.90;;;7.17;;
15831;SDS011;8016;49.928;9.372;2023-08-21T02:52:29;13.87;;;7.10;;
15831;SDS011;8016;49.928;9.372;2023-08-21T02:54:55;10.97;;;6.73;;
15831;SDS011;8016;49.928;9.372;2023-08-21T02:57:21;8.63;;;7.13;;
15831;SDS011;8016;49.928;9.372;2023-08-21T02:59:47;11.07;;;7.20;;
15831;SDS011;8016;49.928;9.372;2023-08-21T03:02:13;8.37;;;6.50;;
15831;SDS011;8016;49.928;9.372;2023-08-21T03:04:39;9.93;;;6.90;;
15831;SDS011;8016;49.928;9.372;2023-08-21T03:07:05;10.13;;;6.93;;
15831;SDS011;8016;49.928;9.372;2023-08-21T03:09:31;9.93;;;7.32;;
15831;SDS011;8016;49.928;9.372;2023-08-21T03:11:56;12.37;;;7.17;;
15831;SDS011;8016;49.928;9.372;2023-08-21T03:14:24;10.00;;;6.57;;
15831;SDS011;8016;49.928;9.372;2023-08-21T03:16:50;8.30;;;6.57;;
15831;SDS011;8016;49.928;9.372;2023-08-21T03:19:16;8.13;;;7.00;;
15831;SDS011;8016;49.928;9.372;2023-08-21T03:21:42;8.47;;;7.33;;
15831;SDS011;8016;49.928;9.372;2023-08-21T03:24:08;7.80;;;6.07;;
15831;SDS011;8016;49.928;9.372;2023-08-21T03:26:34;7.67;;;6.87;;
15831;SDS011;8016;49.928;9.372;2023-08-21T03:29:00;9.37;;;6.80;;
15831;SDS011;8016;49.928;9.372;2023-08-21T03:31:26;7.60;;;6.90;;
15831;SDS011;8016;49.928;9.372;2023-08-21T03:33:52;8.70;;;6.83;;
15831;SDS011;8016;49.928;9.372;2023-08-21T03:36:18;9.53;;;7.13;;
15831;SDS011;8016;49.928;9.372;2023-08-21T03:38:44;10.73;;;6.33;;
15831;SDS011;8016;49.928;9.372;2023-08-21T03:41:11;9.00;;;6.70;;
15831;SDS011;8016;49.928;9.372;2023-08-21T03:43:37;7.57;;;6.80;;
15831;SDS011;8016;49.928;9.372;2023-08-21T03:46:03;7.87;;;7.17;;
15831;SDS011;8016;49.928;9.372;2023-08-21T03:48:29;8.97;;;7.63;;
15831;SDS011;8016;49.928;9.372;2023-08-21T03:50:55;11.93;;;7.30;;
15831;SDS011;8016;49.928;9.372;2023-08-21T03:53:21;9.00;;;7.00;;
15831;SDS011;8016;49.928;9.372;2023-08-21T03:55:47;10.77;;;7.30;;
15831;SDS011;8016;49.928;9.372;2023-08-21T03:58:13;11.33;;;7.13;;
15831;SDS011;8016;49.928;9.372;2023-08-21T04:00:40;10.47;;;6.87;;
15831;SDS011;8016;49.928;9.372;2023-08-21T04:03:06;8.90;;;6.80;;
15831;SDS011;8016;49.928;9.372;2023-08-21T04:05:31;7.50;;;6.60;;
15831;SDS011;8016;49.928;9.372;2023-08-21T04:07:57;8.97;;;7.33;;
15831;SDS011;8016;49.928;9.372;2023-08-21T04:10:23;7.07;;;6.37;;
15831;SDS011;8016;49.928;9.372;2023-08-21T04:12:49;8.13;;;6.40;;
15831;SDS011;8016;49.928;9.372;2023-08-21T04:15:15;7.67;;;6.03;;
15831;SDS011;8016;49.928;9.372;2023-08-21T04:17:41;8.47;;;5.83;;
15831;SDS011;8016;49.928;9.372;2023-08-21T04:20:07;9.53;;;6.90;;
15831;SDS011;8016;49.928;9.372;2023-08-21T04:22:33;9.07;;;7.03;;
15831;SDS011;8016;49.928;9.372;2023-08-21T04:25:00;10.83;;;6.20;;
15831;SDS011;8016;49.928;9.372;2023-08-21T04:27:26;7.67;;;6.93;;
15831;SDS011;8016;49.928;9.372;2023-08-21T04:29:53;9.87;;;6.93;;
15831;SDS011;8016;49.928;9.372;2023-08-21T04:32:19;9.37;;;6.67;;
15831;SDS011;8016;49.928;9.372;2023-08-21T04:34:44;7.17;;;6.47;;
15831;SDS011;8016;49.928;9.372;2023-08-21T04:37:11;12.17;;;6.73;;
15831;SDS011;8016;49.928;9.372;2023-08-21T04:39:37;9.83;;;7.50;;
15831;SDS011;8016;49.928;9.372;2023-08-21T04:42:03;7.53;;;6.80;;
15831;SDS011;8016;49.928;9.372;2023-08-21T04:44:30;8.13;;;6.53;;
15831;SDS011;8016;49.928;9.372;2023-08-21T04:46:56;8.70;;;6.87;;
15831;SDS011;8016;49.928;9.372;2023-08-21T04:49:22;13.73;;;6.97;;
15831;SDS011;8016;49.928;9.372;2023-08-21T04:51:48;10.17;;;7.23;;
15831;SDS011;8016;49.928;9.372;2023-08-21T04:54:14;12.10;;;7.70;;
15831;SDS011;8016;49.928;9.372;2023-08-21T04:56:40;10.13;;;7.40;;
15831;SDS011;8016;49.928;9.372;2023-08-21T04:59:05;9.77;;;7.33;;
15831;SDS011;8016;49.928;9.372;2023-08-21T05:01:31;8.33;;;7.40;;
15831;SDS011;8016;49.928;9.372;2023-08-21T05:03:57;11.10;;;7.63;;
15831;SDS011;8016;49.928;9.372;2023-08-21T05:06:23;10.60;;;7.53;;
15831;SDS011;8016;49.928;9.372;2023-08-21T05:08:49;8.03;;;7.33;;
15831;SDS011;8016;49.928;9.372;2023-08-21T05:11:15;8.33;;;7.43;;
15831;SDS011;8016;49.928;9.372;2023-08-21T05:13:41;9.03;;;7.50;;
15831;SDS011;8016;49.928;9.372;2023-08-21T05:16:07;11.17;;;7.27;;
15831;SDS011;8016;49.928;9.372;2023-08-21T05:18:33;9.10;;;7.87;;
15831;SDS011;8016;49.928;9.372;2023-08-21T05:20:59;9.03;;;7.20;;
15831;SDS011;8016;49.928;9.372;2023-08-21T05:23:25;11.90;;;7.00;;
15831;SDS011;8016;49.928;9.372;2023-08-21T05:25:51;8.50;;;7.07;;
15831;SDS011;8016;49.928;9.372;2023-08-21T05:28:17;8.43;;;6.63;;
15831;SDS011;8016;49.928;9.372;2023-08-21T05:30:46;7.80;;;6.47;;
15831;SDS011;8016;49.928;9.372;2023-08-21T05:33:12;6.47;;;5.97;;
15831;SDS011;8016;49.928;9.372;2023-08-21T05:35:38;9.27;;;6.47;;
15831;SDS011;8016;49.928;9.372;2023-08-21T05:38:05;7.97;;;6.03;;
15831;SDS011;8016;49.928;9.372;2023-08-21T05:40:31;8.03;;;6.50;;
15831;SDS011;8016;49.928;9.372;2023-08-21T05:42:57;6.97;;;5.90;;
15831;SDS011;8016;49.928;9.372;2023-08-21T05:45:24;7.83;;;6.27;;
15831;SDS011;8016;49.928;9.372;2023-08-21T05:47:50;8.73;;;5.80;;
15831;SDS011;8016;49.928;9.372;2023-08-21T05:50:15;8.43;;;5.93;;
15831;SDS011;8016;49.928;9.372;2023-08-21T05:52:41;8.17;;;6.30;;
15831;SDS011;8016;49.928;9.372;2023-08-21T05:55:07;8.80;;;6.37;;
15831;SDS011;8016;49.928;9.372;2023-08-21T05:57:34;7.87;;;7.07;;
15831;SDS011;8016;49.928;9.372;2023-08-21T06:00:00;7.77;;;6.23;;
15831;SDS011;8016;49.928;9.372;2023-08-21T06:02:26;9.47;;;7.07;;
15831;SDS011;8016;49.928;9.372;2023-08-21T06:04:52;9.27;;;7.20;;
15831;SDS011;8016;49.928;9.372;2023-08-21T06:07:17;7.70;;;6.40;;
15831;SDS011;8016;49.928;9.372;2023-08-21T06:09:43;7.77;;;6.93;;
15831;SDS011;8016;49.928;9.372;2023-08-21T06:12:09;9.17;;;7.37;;
15831;SDS011;8016;49.928;9.372;2023-08-21T06:14:35;8.90;;;7.50;;
15831;SDS011;8016;49.928;9.372;2023-08-21T06:17:02;8.03;;;7.23;;
15831;SDS011;8016;49.928;9.372;2023-08-21T06:19:28;14.17;;;7.23;;
15831;SDS011;8016;49.928;9.372;2023-08-21T06:21:55;7.20;;;6.60;;
15831;SDS011;8016;49.928;9.372;2023-08-21T06:24:21;9.13;;;7.07;;
15831;SDS011;8016;49.928;9.372;2023-08-21T06:26:47;7.83;;;7.07;;
15831;SDS011;8016;49.928;9.372;2023-08-21T06:29:13;11.07;;;7.43;;
15831;SDS011;8016;49.928;9.372;2023-08-21T06:31:39;12.07;;;7.80;;
15831;SDS011;8016;49.928;9.372;2023-08-21T06:34:05;8.03;;;6.63;;
15831;SDS011;8016;49.928;9.372;2023-08-21T06:36:31;13.27;;;7.17;;
15831;SDS011;8016;49.928;9.372;2023-08-21T06:38:57;8.70;;;7.50;;
15831;SDS011;8016;49.928;9.372;2023-08-21T06:41:23;11.60;;;7.73;;
15831;SDS011;8016;49.928;9.372;2023-08-21T06:43:50;8.67;;;7.80;;
15831;SDS011;8016;49.928;9.372;2023-08-21T06:46:16;8.73;;;7.93;;
15831;SDS011;8016;49.928;9.372;2023-08-21T06:48:42;9.47;;;8.57;;
15831;SDS011;8016;49.928;9.372;2023-08-21T06:51:08;9.63;;;8.63;;
15831;SDS011;8016;49.928;9.372;2023-08-21T06:53:35;11.77;;;9.70;;
15831;SDS011;8016;49.928;9.372;2023-08-21T06:56:01;11.23;;;10.03;;
15831;SDS011;8016;49.928;9.372;2023-08-21T06:58:27;9.93;;;8.93;;
15831;SDS011;8016;49.928;9.372;2023-08-21T07:00:53;10.30;;;9.23;;
15831;SDS011;8016;49.928;9.372;2023-08-21T07:03:20;9.60;;;8.70;;
15831;SDS011;8016;49.928;9.372;2023-08-21T07:05:46;11.30;;;9.27;;
15831;SDS011;8016;49.928;9.372;2023-08-21T07:08:19;13.10;;;9.33;;
15831;SDS011;8016;49.928;9.372;2023-08-21T07:10:45;10.37;;;9.47;;
15831;SDS011;8016;49.928;9.372;2023-08-21T07:13:11;10.23;;;9.23;;
15831;SDS011;8016;49.928;9.372;2023-08-21T07:15:37;12.00;;;10.83;;
15831;SDS011;8016;49.928;9.372;2023-08-21T07:18:03;12.00;;;10.83;;
15831;SDS011;8016;49.928;9.372;2023-08-21T07:20:29;12.20;;;11.10;;
15831;SDS011;8016;49.928;9.372;2023-08-21T07:22:55;13.07;;;11.73;;
15831;SDS011;8016;49.928;9.372;2023-08-21T07:25:21;12.83;;;11.03;;
15831;SDS011;8016;49.928;9.372;2023-08-21T07:27:47;13.03;;;10.73;;
15831;SDS011;8016;49.928;9.372;2023-08-21T07:30:13;14.13;;;11.50;;
15831;SDS011;8016;49.928;9.372;2023-08-21T07:32:39;12.13;;;10.87;;
15831;SDS011;8016;49.928;9.372;2023-08-21T07:35:05;12.20;;;10.90;;
15831;SDS011;8016;49.928;9.372;2023-08-21T07:37:31;14.37;;;10.90;;
15831;SDS011;8016;49.928;9.372;2023-08-21T07:39:57;14.47;;;12.17;;
15831;SDS011;8016;49.928;9.372;2023-08-21T07:42:23;13.73;;;12.13;;
15831;SDS011;8016;49.928;9.372;2023-08-21T07:44:49;14.52;;;12.43;;
15831;SDS011;8016;49.928;9.372;2023-08-21T07:47:15;13.20;;;12.00;;
15831;SDS011;8016;49.928;9.372;2023-08-21T07:49:41;14.43;;;12.98;;
15831;SDS011;8016;49.928;9.372;2023-08-21T07:52:07;14.27;;;12.77;;
15831;SDS011;8016;49.928;9.372;2023-08-21T07:54:33;14.88;;;12.45;;
15831;SDS011;8016;49.928;9.372;2023-08-21T07:56:59;14.13;;;12.82;;
15831;SDS011;8016;49.928;9.372;2023-08-21T07:59:25;15.63;;;14.02;;
15831;SDS011;8016;49.928;9.372;2023-08-21T08:01:51;13.27;;;11.93;;
15831;SDS011;8016;49.928;9.372;2023-08-21T08:04:17;14.60;;;13.20;;
15831;SDS011;8016;49.928;9.372;2023-08-21T08:06:45;14.15;;;12.63;;
15831;SDS011;8016;49.928;9.372;2023-08-21T08:09:10;16.48;;;13.05;;
15831;SDS011;8016;49.928;9.372;2023-08-21T08:11:36;14.50;;;13.13;;
15831;SDS011;8016;49.928;9.372;2023-08-21T08:14:02;14.77;;;13.35;;
15831;SDS011;8016;49.928;9.372;2023-08-21T08:16:28;14.40;;;12.93;;
15831;SDS011;8016;49.928;9.372;2023-08-21T08:18:54;14.88;;;13.38;;
15831;SDS011;8016;49.928;9.372;2023-08-21T08:21:20;15.48;;;13.57;;
15831;SDS011;8016;49.928;9.372;2023-08-21T08:23:46;13.73;;;12.32;;
15831;SDS011;8016;49.928;9.372;2023-08-21T08:26:12;14.05;;;12.75;;
15831;SDS011;8016;49.928;9.372;2023-08-21T08:28:38;14.20;;;12.88;;
15831;SDS011;8016;49.928;9.372;2023-08-21T08:31:04;14.60;;;12.82;;
15831;SDS011;8016;49.928;9.372;2023-08-21T08:33:30;12.38;;;11.00;;
15831;SDS011;8016;49.928;9.372;2023-08-21T08:35:56;13.45;;;11.13;;
15831;SDS011;8016;49.928;9.372;2023-08-21T08:38:22;9.57;;;8.50;;
15831;SDS011;8016;49.928;9.372;2023-08-21T08:40:48;14.77;;;6.35;;
15831;SDS011;8016;49.928;9.372;2023-08-21T08:43:16;7.30;;;6.13;;
15831;SDS011;8016;49.928;9.372;2023-08-21T08:45:43;7.63;;;6.35;;
15831;SDS011;8016;49.928;9.372;2023-08-21T08:48:11;8.10;;;6.90;;
15831;SDS011;8016;49.928;9.372;2023-08-21T08:50:38;9.65;;;8.05;;
15831;SDS011;8016;49.928;9.372;2023-08-21T08:53:04;10.15;;;6.53;;
15831;SDS011;8016;49.928;9.372;2023-08-21T08:55:33;6.60;;;5.15;;
15831;SDS011;8016;49.928;9.372;2023-08-21T08:57:59;8.18;;;5.22;;
15831;SDS011;8016;49.928;9.372;2023-08-21T09:00:25;6.82;;;5.57;;
15831;SDS011;8016;49.928;9.372;2023-08-21T09:02:51;6.97;;;5.68;;
15831;SDS011;8016;49.928;9.372;2023-08-21T09:05:17;6.20;;;5.60;;
15831;SDS011;8016;49.928;9.372;2023-08-21T09:07:43;5.68;;;4.68;;
15831;SDS011;8016;49.928;9.372;2023-08-21T09:10:13;6.47;;;5.70;;
15831;SDS011;8016;49.928;9.372;2023-08-21T09:12:44;7.97;;;5.13;;
15831;SDS011;8016;49.928;9.372;2023-08-21T09:15:11;6.00;;;4.90;;
15831;SDS011;8016;49.928;9.372;2023-08-21T09:17:37;9.32;;;6.30;;
15831;SDS011;8016;49.928;9.372;2023-08-21T09:20:03;7.35;;;5.78;;
15831;SDS011;8016;49.928;9.372;2023-08-21T09:22:29;6.93;;;5.18;;
15831;SDS011;8016;49.928;9.372;2023-08-21T09:27:35;6.88;;;5.40;;
15831;SDS011;8016;49.928;9.372;2023-08-21T09:30:03;6.93;;;5.50;;
15831;SDS011;8016;49.928;9.372;2023-08-21T09:32:29;7.50;;;5.88;;
15831;SDS011;8016;49.928;9.372;2023-08-21T09:34:55;5.65;;;4.97;;
15831;SDS011;8016;49.928;9.372;2023-08-21T09:37:23;6.15;;;4.72;;
15831;SDS011;8016;49.928;9.372;2023-08-21T09:39:53;7.93;;;4.85;;
15831;SDS011;8016;49.928;9.372;2023-08-21T09:42:19;8.02;;;5.88;;
15831;SDS011;8016;49.928;9.372;2023-08-21T09:44:46;7.72;;;5.80;;
15831;SDS011;8016;49.928;9.372;2023-08-21T09:47:14;7.28;;;5.78;;
15831;SDS011;8016;49.928;9.372;2023-08-21T09:49:40;7.50;;;6.18;;
15831;SDS011;8016;49.928;9.372;2023-08-21T09:52:06;8.50;;;6.28;;
15831;SDS011;8016;49.928;9.372;2023-08-21T09:54:35;6.47;;;5.97;;
15831;SDS011;8016;49.928;9.372;2023-08-21T09:57:01;7.22;;;5.90;;
15831;SDS011;8016;49.928;9.372;2023-08-21T09:59:28;6.53;;;5.85;;
15831;SDS011;8016;49.928;9.372;2023-08-21T10:01:55;7.18;;;5.82;;
15831;SDS011;8016;49.928;9.372;2023-08-21T10:04:23;8.65;;;6.70;;
15831;SDS011;8016;49.928;9.372;2023-08-21T10:06:49;9.45;;;6.00;;
15831;SDS011;8016;49.928;9.372;2023-08-21T10:09:16;8.23;;;6.20;;
15831;SDS011;8016;49.928;9.372;2023-08-21T10:11:43;6.50;;;5.82;;
15831;SDS011;8016;49.928;9.372;2023-08-21T10:14:09;6.72;;;5.97;;
15831;SDS011;8016;49.928;9.372;2023-08-21T10:16:36;8.63;;;6.32;;
15831;SDS011;8016;49.928;9.372;2023-08-21T10:19:03;9.98;;;6.38;;
15831;SDS011;8016;49.928;9.372;2023-08-21T10:21:34;7.07;;;5.75;;
15831;SDS011;8016;49.928;9.372;2023-08-21T10:24:01;7.18;;;6.07;;
15831;SDS011;8016;49.928;9.372;2023-08-21T10:26:27;6.60;;;6.00;;
15831;SDS011;8016;49.928;9.372;2023-08-21T10:29:00;6.93;;;5.97;;
15831;SDS011;8016;49.928;9.372;2023-08-21T10:31:38;7.63;;;6.47;;
15831;SDS011;8016;49.928;9.372;2023-08-21T10:34:06;8.30;;;6.20;;
15831;SDS011;8016;49.928;9.372;2023-08-21T10:41:52;7.40;;;6.45;;
15831;SDS011;8016;49.928;9.372;2023-08-21T10:44:33;11.43;;;6.70;;
15831;SDS011;8016;49.928;9.372;2023-08-21T10:49:41;7.78;;;6.95;;
15831;SDS011;8016;49.928;9.372;2023-08-21T10:52:07;9.75;;;7.68;;
15831;SDS011;8016;49.928;9.372;2023-08-21T10:54:46;7.30;;;6.60;;
15831;SDS011;8016;49.928;9.372;2023-08-21T10:57:12;8.00;;;7.28;;
15831;SDS011;8016;49.928;9.372;2023-08-21T10:59:38;8.00;;;6.55;;
15831;SDS011;8016;49.928;9.372;2023-08-21T11:02:04;7.25;;;6.18;;
15831;SDS011;8016;49.928;9.372;2023-08-21T11:04:39;7.20;;;6.50;;
15831;SDS011;8016;49.928;9.372;2023-08-21T11:07:05;6.78;;;6.07;;
15831;SDS011;8016;49.928;9.372;2023-08-21T11:09:31;8.40;;;5.95;;
15831;SDS011;8016;49.928;9.372;2023-08-21T11:12:04;8.93;;;6.50;;
15831;SDS011;8016;49.928;9.372;2023-08-21T11:14:30;8.05;;;5.85;;
15831;SDS011;8016;49.928;9.372;2023-08-21T11:16:56;6.57;;;5.93;;
15831;SDS011;8016;49.928;9.372;2023-08-21T11:19:24;7.53;;;5.65;;
15831;SDS011;8016;49.928;9.372;2023-08-21T11:21:53;7.00;;;6.35;;
15831;SDS011;8016;49.928;9.372;2023-08-21T11:24:19;6.88;;;6.18;;
15831;SDS011;8016;49.928;9.372;2023-08-21T11:26:45;9.75;;;6.00;;
15831;SDS011;8016;49.928;9.372;2023-08-21T11:29:10;7.82;;;6.10;;
15831;SDS011;8016;49.928;9.372;2023-08-21T11:31:36;8.13;;;6.93;;
15831;SDS011;8016;49.928;9.372;2023-08-21T11:34:02;7.25;;;6.22;;
15831;SDS011;8016;49.928;9.372;2023-08-21T11:36:28;9.63;;;6.95;;
15831;SDS011;8016;49.928;9.372;2023-08-21T11:38:58;7.68;;;6.88;;
15831;SDS011;8016;49.928;9.372;2023-08-21T11:41:25;7.68;;;6.88;;
15831;SDS011;8016;49.928;9.372;2023-08-21T11:43:51;9.68;;;7.75;;
15831;SDS011;8016;49.928;9.372;2023-08-21T11:46:17;7.70;;;7.00;;
15831;SDS011;8016;49.928;9.372;2023-08-21T11:48:44;8.52;;;7.00;;
15831;SDS011;8016;49.928;9.372;2023-08-21T11:51:10;8.05;;;6.88;;
15831;SDS011;8016;49.928;9.372;2023-08-21T11:56:02;7.00;;;6.38;;
15831;SDS011;8016;49.928;9.372;2023-08-21T11:58:29;8.75;;;6.68;;
15831;SDS011;8016;49.928;9.372;2023-08-21T12:01:04;9.10;;;7.05;;
15831;SDS011;8016;49.928;9.372;2023-08-21T12:03:35;7.78;;;6.60;;
15831;SDS011;8016;49.928;9.372;2023-08-21T12:06:04;7.07;;;6.47;;
15831;SDS011;8016;49.928;9.372;2023-08-21T12:08:30;11.48;;;6.32;;
15831;SDS011;8016;49.928;9.372;2023-08-21T12:10:56;7.25;;;6.40;;
15831;SDS011;8016;49.928;9.372;2023-08-21T12:13:22;6.63;;;5.40;;
15831;SDS011;8016;49.928;9.372;2023-08-21T12:15:48;8.90;;;6.15;;
15831;SDS011;8016;49.928;9.372;2023-08-21T12:18:13;6.50;;;5.28;;
15831;SDS011;8016;49.928;9.372;2023-08-21T12:20:39;6.95;;;6.20;;
15831;SDS011;8016;49.928;9.372;2023-08-21T12:23:05;5.45;;;4.95;;
15831;SDS011;8016;49.928;9.372;2023-08-21T12:25:31;5.78;;;5.28;;
15831;SDS011;8016;49.928;9.372;2023-08-21T12:27:57;5.72;;;4.43;;
15831;SDS011;8016;49.928;9.372;2023-08-21T12:30:25;6.35;;;4.65;;
15831;SDS011;8016;49.928;9.372;2023-08-21T12:32:51;5.40;;;4.90;;
15831;SDS011;8016;49.928;9.372;2023-08-21T12:35:17;5.43;;;4.90;;
15831;SDS011;8016;49.928;9.372;2023-08-21T12:37:43;5.20;;;4.70;;
15831;SDS011;8016;49.928;9.372;2023-08-21T12:40:09;5.28;;;4.75;;
15831;SDS011;8016;49.928;9.372;2023-08-21T12:42:35;8.40;;;4.53;;
15831;SDS011;8016;49.928;9.372;2023-08-21T12:45:01;5.90;;;4.35;;
15831;SDS011;8016;49.928;9.372;2023-08-21T12:47:27;4.28;;;3.95;;
15831;SDS011;8016;49.928;9.372;2023-08-21T12:49:53;5.20;;;3.85;;
15831;SDS011;8016;49.928;9.372;2023-08-21T12:52:18;5.13;;;4.15;;
15831;SDS011;8016;49.928;9.372;2023-08-21T12:54:45;5.45;;;3.95;;
15831;SDS011;8016;49.928;9.372;2023-08-21T12:57:10;5.68;;;3.92;;
15831;SDS011;8016;49.928;9.372;2023-08-21T12:59:37;5.72;;;4.57;;
15831;SDS011;8016;49.928;9.372;2023-08-21T13:02:03;6.70;;;4.63;;
15831;SDS011;8016;49.928;9.372;2023-08-21T13:04:29;6.68;;;4.60;;
15831;SDS011;8016;49.928;9.372;2023-08-21T13:06:55;7.88;;;4.55;;
15831;SDS011;8016;49.928;9.372;2023-08-21T13:09:22;5.15;;;4.03;;
15831;SDS011;8016;49.928;9.372;2023-08-21T13:11:53;5.65;;;4.63;;
15831;SDS011;8016;49.928;9.372;2023-08-21T13:14:19;5.35;;;3.88;;
15831;SDS011;8016;49.928;9.372;2023-08-21T13:16:45;4.38;;;3.20;;
15831;SDS011;8016;49.928;9.372;2023-08-21T13:19:11;3.00;;;2.80;;
15831;SDS011;8016;49.928;9.372;2023-08-21T13:21:37;5.68;;;3.63;;
15831;SDS011;8016;49.928;9.372;2023-08-21T13:24:03;7.13;;;3.55;;
15831;SDS011;8016;49.928;9.372;2023-08-21T13:26:29;4.30;;;3.55;;
15831;SDS011;8016;49.928;9.372;2023-08-21T13:28:56;4.97;;;3.47;;
15831;SDS011;8016;49.928;9.372;2023-08-21T13:31:22;6.82;;;3.95;;
15831;SDS011;8016;49.928;9.372;2023-08-21T13:33:48;3.83;;;3.53;;
15831;SDS011;8016;49.928;9.372;2023-08-21T13:36:15;6.07;;;3.40;;
15831;SDS011;8016;49.928;9.372;2023-08-21T13:38:41;4.35;;;3.75;;
15831;SDS011;8016;49.928;9.372;2023-08-21T13:41:07;4.00;;;3.40;;
15831;SDS011;8016;49.928;9.372;2023-08-21T13:43:34;4.47;;;3.83;;
15831;SDS011;8016;49.928;9.372;2023-08-21T13:46:00;4.57;;;3.80;;
15831;SDS011;8016;49.928;9.372;2023-08-21T13:48:32;5.40;;;3.40;;
15831;SDS011;8016;49.928;9.372;2023-08-21T13:50:58;4.07;;;3.67;;
15831;SDS011;8016;49.928;9.372;2023-08-21T13:53:24;4.15;;;3.60;;
15831;SDS011;8016;49.928;9.372;2023-08-21T13:55:50;7.25;;;3.65;;
15831;SDS011;8016;49.928;9.372;2023-08-21T13:58:16;5.22;;;3.45;;
15831;SDS011;8016;49.928;9.372;2023-08-21T14:00:43;4.68;;;3.75;;
15831;SDS011;8016;49.928;9.372;2023-08-21T14:03:11;4.00;;;3.55;;
15831;SDS011;8016;49.928;9.372;2023-08-21T14:05:37;5.18;;;3.55;;
15831;SDS011;8016;49.928;9.372;2023-08-21T14:08:03;3.85;;;3.40;;
15831;SDS011;8016;49.928;9.372;2023-08-21T14:10:29;4.97;;;3.08;;
15831;SDS011;8016;49.928;9.372;2023-08-21T14:12:55;4.20;;;3.58;;
15831;SDS011;8016;49.928;9.372;2023-08-21T14:15:24;3.40;;;3.10;;
15831;SDS011;8016;49.928;9.372;2023-08-21T14:17:50;3.47;;;3.00;;
15831;SDS011;8016;49.928;9.372;2023-08-21T14:20:16;3.25;;;2.85;;
15831;SDS011;8016;49.928;9.372;2023-08-21T14:22:42;2.85;;;2.65;;
15831;SDS011;8016;49.928;9.372;2023-08-21T14:25:08;2.88;;;2.67;;
15831;SDS011;8016;49.928;9.372;2023-08-21T14:27:35;5.63;;;2.63;;
15831;SDS011;8016;49.928;9.372;2023-08-21T14:30:01;2.90;;;2.58;;
15831;SDS011;8016;49.928;9.372;2023-08-21T14:32:28;3.53;;;2.53;;
15831;SDS011;8016;49.928;9.372;2023-08-21T14:34:54;3.67;;;2.55;;
15831;SDS011;8016;49.928;9.372;2023-08-21T14:37:20;5.05;;;2.42;;
15831;SDS011;8016;49.928;9.372;2023-08-21T14:39:46;2.58;;;1.95;;
15831;SDS011;8016;49.928;9.372;2023-08-21T14:42:13;3.15;;;2.70;;
15831;SDS011;8016;49.928;9.372;2023-08-21T14:44:39;2.10;;;1.90;;
15831;SDS011;8016;49.928;9.372;2023-08-21T14:47:05;2.92;;;2.00;;
15831;SDS011;8016;49.928;9.372;2023-08-21T14:49:31;2.50;;;2.22;;
15831;SDS011;8016;49.928;9.372;2023-08-21T14:52:00;5.30;;;2.08;;
15831;SDS011;8016;49.928;9.372;2023-08-21T14:54:26;2.38;;;2.10;;
15831;SDS011;8016;49.928;9.372;2023-08-21T14:56:52;2.00;;;1.80;;
15831;SDS011;8016;49.928;9.372;2023-08-21T14:59:18;2.85;;;2.22;;
15831;SDS011;8016;49.928;9.372;2023-08-21T15:01:44;3.17;;;2.30;;
15831;SDS011;8016;49.928;9.372;2023-08-21T15:04:10;2.20;;;2.00;;